ESOW

Stockholm Västerås Airport

Stockholm / Västerås, Sweden
METAR ESOW 191650Z AUTO 23008KT 200V260 9999 NCD 19/08 Q1011
Observed Flight Rules
Aug-19 @ 16:50 UTC (24 minutes ago) Visual Flight Rules
Wind Visibility Clouds
230° at 8 knots 10,000+ meters
  • Clear skies
Temperatures Readings
Current 19°C / 66°F
Dewpoint 8°C / 46°F
Humidity 49%
Altimeter 29.85" Hg
Pressure 1011 hPa
Elevation 31
METAR ESOW 191650Z AUTO 23008KT 200V260 9999 NCD 19/08 Q1011
Observed Flight Rules
Aug-19 @ 16:50 UTC
(24 minutes ago)
VFR
Wind Visibility
230° at 8 knots 10,000+ meters
Clouds
  • Clear skies
Temperature Dewpoint
19°C / 66°F 8°C / 46°F
Humidity Altimeter Pressure
49% 29.85" Hg 1011 hPa